Tanja Jacob — A8YR7 — position and weather

sailwx.info

Track history (hours):
 
Tides and Currents Weather Stations Pressure Air Temp Water Temp Dewpoint Dewpoint Depression Visibility Wind Speed Wind Dir Waves Ship Positions

Tanja Jacob

Last reported at 2015-Aug-09 18:28 UTC. Time now 2015-Aug-28 17:16 UTC.
Position N 31°01' W 118°11'.
Warning: this ship's position is 18 days out of date.

Length 227 m; draft 12 m.

Type: Ship. MMSI: 636092217.

Date/timePositionNaut miles runAvg speedWind from/ knotsBaromVisibWave heightAir tempDewpointWater temp
2015-Aug-09 18:28N 31°01' W 118°11'1313.6
2015-Aug-09 17:33N 31°13' W 118°15'6 2.6
2015-Aug-09 15:19N 31°18' W 118°19'1 1.1
2015-Aug-09 14:08N 31°18' W 118°20'1 0.7
2015-Aug-09 13:21N 31°19' W 118°21'1 0.7
2015-Aug-09 11:33N 31°19' W 118°22'3 0.9
2015-Aug-09 08:32N 31°20' W 118°25'2 1.1
2015-Aug-09 07:09N 31°21' W 118°26'0 0.3
2015-Aug-09 06:29N 31°21' W 118°27'1 0.9
2015-Aug-09 05:15N 31°22' W 118°27'3 0.9
2015-Aug-09 01:25N 31°25' W 118°29'6 1.4
2015-Aug-08 21:23N 31°31' W 118°31'19 2.3
2015-Aug-08 13:08N 31°42' W 118°49'5 7.9
2015-Aug-08 12:32N 31°38' W 118°47'2 1.7
2015-Aug-08 11:33N 31°40' W 118°48'7 7.0
2015-Aug-08 10:31N 31°35' W 118°41'1111.7
2015-Aug-08 09:33N 31°27' W 118°32'1110.7
2015-Aug-08 08:33N 31°16' W 118°31'1413.1
2015-Aug-08 07:31N 31°03' W 118°36'1412.6
2015-Aug-08 06:27N 30°50' W 118°40'1312.7
2015-Aug-08 05:25N 30°37' W 118°44'1212.6
2015-Aug-08 04:27N 30°26' W 118°48'1212.4
2015-Aug-08 03:31N 30°15' W 118°51'1212.3
2015-Aug-08 02:33N 30°03' W 118°55'1312.3
2015-Aug-08 01:32N 29°51' W 118°58'3712.2
2015-Aug-07 22:29N 29°14' W 118°59'1312.5
2015-Aug-07 21:25N 29°01' W 118°57'1112.4
2015-Aug-07 20:31N 28°49' W 118°55'12512.6
2015-Aug-07 10:33N 26°55' W 117°57'2812.8
2015-Aug-07 08:22N 26°30' W 117°43'2312.7
2015-Aug-07 06:33N 26°09' W 117°32'2912.8
2015-Aug-07 04:18N 25°43' W 117°19'21512.6
2015-Aug-06 11:14N 23°01' W 114°43'2212.6
2015-Aug-06 09:31N 22°47' W 114°25'1212.7
2015-Aug-06 08:32N 22°40' W 114°15'  
Track history (hours):
 
Tides and Currents Weather Stations Pressure Air Temp Water Temp Dewpoint Dewpoint Depression Visibility Wind Speed Wind Dir Waves Ship Positions

Tanja Jacob

Last reported at 2015-Aug-09 18:28 UTC. Time now 2015-Aug-28 17:16 UTC.
Position N 31°01' W 118°11'.
Warning: this ship's position is 18 days out of date.

Length 227 m; draft 12 m.

Type: Ship. MMSI: 636092217.

Date/timePositionNaut miles runAvg speedWind from/ knotsBaromVisibWave heightAir tempDewpointWater temp
2015-Aug-09 18:28N 31°01' W 118°11'1313.6
2015-Aug-09 17:33N 31°13' W 118°15'6 2.6
2015-Aug-09 15:19N 31°18' W 118°19'1 1.1
2015-Aug-09 14:08N 31°18' W 118°20'1 0.7
2015-Aug-09 13:21N 31°19' W 118°21'1 0.7
2015-Aug-09 11:33N 31°19' W 118°22'3 0.9
2015-Aug-09 08:32N 31°20' W 118°25'2 1.1
2015-Aug-09 07:09N 31°21' W 118°26'0 0.3
2015-Aug-09 06:29N 31°21' W 118°27'1 0.9
2015-Aug-09 05:15N 31°22' W 118°27'3 0.9
2015-Aug-09 01:25N 31°25' W 118°29'6 1.4
2015-Aug-08 21:23N 31°31' W 118°31'19 2.3
2015-Aug-08 13:08N 31°42' W 118°49'5 7.9
2015-Aug-08 12:32N 31°38' W 118°47'2 1.7
2015-Aug-08 11:33N 31°40' W 118°48'7 7.0
2015-Aug-08 10:31N 31°35' W 118°41'1111.7
2015-Aug-08 09:33N 31°27' W 118°32'1110.7
2015-Aug-08 08:33N 31°16' W 118°31'1413.1
2015-Aug-08 07:31N 31°03' W 118°36'1412.6
2015-Aug-08 06:27N 30°50' W 118°40'1312.7
2015-Aug-08 05:25N 30°37' W 118°44'1212.6
2015-Aug-08 04:27N 30°26' W 118°48'1212.4
2015-Aug-08 03:31N 30°15' W 118°51'1212.3
2015-Aug-08 02:33N 30°03' W 118°55'1312.3
2015-Aug-08 01:32N 29°51' W 118°58'3712.2
2015-Aug-07 22:29N 29°14' W 118°59'1312.5
2015-Aug-07 21:25N 29°01' W 118°57'1112.4
2015-Aug-07 20:31N 28°49' W 118°55'12512.6
2015-Aug-07 10:33N 26°55' W 117°57'2812.8
2015-Aug-07 08:22N 26°30' W 117°43'2312.7
2015-Aug-07 06:33N 26°09' W 117°32'2912.8
2015-Aug-07 04:18N 25°43' W 117°19'21512.6
2015-Aug-06 11:14N 23°01' W 114°43'2212.6
2015-Aug-06 09:31N 22°47' W 114°25'1212.7
2015-Aug-06 08:32N 22°40' W 114°15'  

Dump ship's entire track history